Terminal Aerodrome Forecast
Issued by NWS

Home | Current Version | Previous Version | Text Only | Print | Product List | Glossary On
Versions: 1 2 3 4 5 6 7 8 9 10 11 12
860
FTUS45 KGGW 172320
TAFSDY
TAF
KSDY 172320Z 1800/1824 23012KT P6SM SCT250 WS020/29040KT
     FM180300 24010KT P6SM FEW120 WS020/29035KT
     FM180600 22009KT P6SM SCT250=

USA.gov is the U.S. government's official web portal to all federal, state and local government web resources and services.